sensor_id;sensor_type;location;lat;lon;timestamp;temperature;humidity
80577;DHT22;69937;52.420;10.538;2023-06-10T00:01:02;16.30;62.70
80577;DHT22;69937;52.420;10.538;2023-06-10T00:06:04;16.20;63.00
80577;DHT22;69937;52.420;10.538;2023-06-10T00:11:05;16.10;63.70
80577;DHT22;69937;52.420;10.538;2023-06-10T00:16:06;16.00;64.40
80577;DHT22;69937;52.420;10.538;2023-06-10T00:21:06;15.80;65.00
80577;DHT22;69937;52.420;10.538;2023-06-10T00:26:07;15.70;65.70
80577;DHT22;69937;52.420;10.538;2023-06-10T00:31:07;15.60;66.40
80577;DHT22;69937;52.420;10.538;2023-06-10T00:36:08;15.60;66.40
80577;DHT22;69937;52.420;10.538;2023-06-10T00:41:17;15.50;67.10
80577;DHT22;69937;52.420;10.538;2023-06-10T00:46:18;15.40;67.30
80577;DHT22;69937;52.420;10.538;2023-06-10T00:51:20;15.20;68.10
80577;DHT22;69937;52.420;10.538;2023-06-10T00:56:21;15.30;68.10
80577;DHT22;69937;52.420;10.538;2023-06-10T01:01:22;15.00;68.60
80577;DHT22;69937;52.420;10.538;2023-06-10T01:11:35;15.00;69.00
80577;DHT22;69937;52.420;10.538;2023-06-10T01:16:37;14.80;69.00
80577;DHT22;69937;52.420;10.538;2023-06-10T01:21:38;14.70;69.60
80577;DHT22;69937;52.420;10.538;2023-06-10T01:26:41;14.60;69.40
80577;DHT22;69937;52.420;10.538;2023-06-10T01:31:54;14.50;69.80
80577;DHT22;69937;52.420;10.538;2023-06-10T01:36:58;14.40;70.20
80577;DHT22;69937;52.420;10.538;2023-06-10T01:41:59;14.30;70.60
80577;DHT22;69937;52.420;10.538;2023-06-10T01:47:00;14.20;70.70
80577;DHT22;69937;52.420;10.538;2023-06-10T01:52:01;14.20;70.70
80577;DHT22;69937;52.420;10.538;2023-06-10T01:57:02;14.00;71.20
80577;DHT22;69937;52.420;10.538;2023-06-10T02:02:03;14.00;70.90
80577;DHT22;69937;52.420;10.538;2023-06-10T02:07:03;13.90;71.40
80577;DHT22;69937;52.420;10.538;2023-06-10T02:12:04;13.90;71.00
80577;DHT22;69937;52.420;10.538;2023-06-10T02:17:06;13.90;71.00
80577;DHT22;69937;52.420;10.538;2023-06-10T02:22:07;13.80;71.70
80577;DHT22;69937;52.420;10.538;2023-06-10T02:27:07;13.70;71.80
80577;DHT22;69937;52.420;10.538;2023-06-10T02:32:08;13.70;71.60
80577;DHT22;69937;52.420;10.538;2023-06-10T02:37:09;13.60;71.50
80577;DHT22;69937;52.420;10.538;2023-06-10T02:42:10;13.50;71.40
80577;DHT22;69937;52.420;10.538;2023-06-10T02:47:11;13.50;71.10
80577;DHT22;69937;52.420;10.538;2023-06-10T02:52:11;13.30;71.80
80577;DHT22;69937;52.420;10.538;2023-06-10T02:57:12;13.30;71.40
80577;DHT22;69937;52.420;10.538;2023-06-10T03:02:14;13.00;72.10
80577;DHT22;69937;52.420;10.538;2023-06-10T03:07:16;13.00;71.90
80577;DHT22;69937;52.420;10.538;2023-06-10T03:12:16;13.00;71.60
80577;DHT22;69937;52.420;10.538;2023-06-10T03:17:17;12.90;71.10
80577;DHT22;69937;52.420;10.538;2023-06-10T03:22:17;12.80;70.90
80577;DHT22;69937;52.420;10.538;2023-06-10T03:27:18;12.80;72.00
80577;DHT22;69937;52.420;10.538;2023-06-10T03:32:18;12.80;70.80
80577;DHT22;69937;52.420;10.538;2023-06-10T03:37:19;12.80;71.10
80577;DHT22;69937;52.420;10.538;2023-06-10T03:42:20;12.80;71.50
80577;DHT22;69937;52.420;10.538;2023-06-10T03:47:20;12.90;72.50
80577;DHT22;69937;52.420;10.538;2023-06-10T03:52:21;12.90;72.10
80577;DHT22;69937;52.420;10.538;2023-06-10T03:57:21;12.80;71.90
80577;DHT22;69937;52.420;10.538;2023-06-10T04:02:22;12.70;72.00
80577;DHT22;69937;52.420;10.538;2023-06-10T04:07:23;12.50;72.40
80577;DHT22;69937;52.420;10.538;2023-06-10T04:12:24;12.70;72.60
80577;DHT22;69937;52.420;10.538;2023-06-10T04:17:25;12.80;73.00
80577;DHT22;69937;52.420;10.538;2023-06-10T04:22:25;12.70;73.30
80577;DHT22;69937;52.420;10.538;2023-06-10T04:27:26;12.90;73.50
80577;DHT22;69937;52.420;10.538;2023-06-10T04:32:27;12.90;74.10
80577;DHT22;69937;52.420;10.538;2023-06-10T04:37:28;13.00;73.90
80577;DHT22;69937;52.420;10.538;2023-06-10T04:42:29;13.10;73.50
80577;DHT22;69937;52.420;10.538;2023-06-10T04:47:30;13.30;73.50
80577;DHT22;69937;52.420;10.538;2023-06-10T04:52:34;13.50;72.80
80577;DHT22;69937;52.420;10.538;2023-06-10T04:57:34;13.50;72.60
80577;DHT22;69937;52.420;10.538;2023-06-10T05:02:35;13.60;72.30
80577;DHT22;69937;52.420;10.538;2023-06-10T05:07:35;13.70;72.20
80577;DHT22;69937;52.420;10.538;2023-06-10T05:12:36;13.70;72.20
80577;DHT22;69937;52.420;10.538;2023-06-10T05:17:36;13.90;71.70
80577;DHT22;69937;52.420;10.538;2023-06-10T05:22:37;13.90;71.50
80577;DHT22;69937;52.420;10.538;2023-06-10T05:27:38;14.10;71.20
80577;DHT22;69937;52.420;10.538;2023-06-10T05:32:39;14.20;70.90
80577;DHT22;69937;52.420;10.538;2023-06-10T05:37:40;14.30;71.00
80577;DHT22;69937;52.420;10.538;2023-06-10T05:42:40;14.50;70.40
80577;DHT22;69937;52.420;10.538;2023-06-10T05:47:41;14.70;71.20
80577;DHT22;69937;52.420;10.538;2023-06-10T05:52:41;15.00;70.00
80577;DHT22;69937;52.420;10.538;2023-06-10T05:57:42;15.20;69.00
80577;DHT22;69937;52.420;10.538;2023-06-10T06:02:43;15.40;68.80
80577;DHT22;69937;52.420;10.538;2023-06-10T06:07:43;15.60;68.60
80577;DHT22;69937;52.420;10.538;2023-06-10T06:12:44;15.80;68.10
80577;DHT22;69937;52.420;10.538;2023-06-10T06:17:45;15.90;67.70
80577;DHT22;69937;52.420;10.538;2023-06-10T06:22:46;16.00;67.50
80577;DHT22;69937;52.420;10.538;2023-06-10T06:27:47;16.20;67.30
80577;DHT22;69937;52.420;10.538;2023-06-10T06:32:47;16.40;67.30
80577;DHT22;69937;52.420;10.538;2023-06-10T06:37:48;16.50;66.40
80577;DHT22;69937;52.420;10.538;2023-06-10T06:42:49;16.70;66.50
80577;DHT22;69937;52.420;10.538;2023-06-10T06:47:50;16.90;66.50
80577;DHT22;69937;52.420;10.538;2023-06-10T06:52:51;17.00;65.90
80577;DHT22;69937;52.420;10.538;2023-06-10T06:57:52;17.20;65.30
80577;DHT22;69937;52.420;10.538;2023-06-10T07:02:53;17.30;65.10
80577;DHT22;69937;52.420;10.538;2023-06-10T07:07:54;17.40;64.70
80577;DHT22;69937;52.420;10.538;2023-06-10T07:12:56;17.70;65.00
80577;DHT22;69937;52.420;10.538;2023-06-10T07:17:56;17.80;64.00
80577;DHT22;69937;52.420;10.538;2023-06-10T07:22:57;18.00;64.50
80577;DHT22;69937;52.420;10.538;2023-06-10T07:27:58;18.20;64.70
80577;DHT22;69937;52.420;10.538;2023-06-10T07:32:58;18.40;63.30
80577;DHT22;69937;52.420;10.538;2023-06-10T07:37:59;18.50;63.90
80577;DHT22;69937;52.420;10.538;2023-06-10T07:43:00;18.80;63.90
80577;DHT22;69937;52.420;10.538;2023-06-10T07:48:00;19.00;63.40
80577;DHT22;69937;52.420;10.538;2023-06-10T07:53:01;19.30;62.60
80577;DHT22;69937;52.420;10.538;2023-06-10T07:58:02;19.30;62.30
80577;DHT22;69937;52.420;10.538;2023-06-10T08:03:03;19.50;62.50
80577;DHT22;69937;52.420;10.538;2023-06-10T08:08:04;19.70;61.60
80577;DHT22;69937;52.420;10.538;2023-06-10T08:13:04;19.90;61.80
80577;DHT22;69937;52.420;10.538;2023-06-10T08:18:05;20.20;60.70
80577;DHT22;69937;52.420;10.538;2023-06-10T08:23:06;20.50;60.60
80577;DHT22;69937;52.420;10.538;2023-06-10T08:28:06;20.50;60.40
80577;DHT22;69937;52.420;10.538;2023-06-10T08:33:07;20.80;60.60
80577;DHT22;69937;52.420;10.538;2023-06-10T08:38:07;21.00;60.00
80577;DHT22;69937;52.420;10.538;2023-06-10T08:48:33;21.60;59.30
80577;DHT22;69937;52.420;10.538;2023-06-10T08:53:37;21.90;59.10
80577;DHT22;69937;52.420;10.538;2023-06-10T08:58:39;22.20;58.10
80577;DHT22;69937;52.420;10.538;2023-06-10T09:03:42;22.50;58.30
80577;DHT22;69937;52.420;10.538;2023-06-10T09:08:43;22.90;57.10
80577;DHT22;69937;52.420;10.538;2023-06-10T09:13:46;23.10;56.50
80577;DHT22;69937;52.420;10.538;2023-06-10T09:18:47;23.40;55.20
80577;DHT22;69937;52.420;10.538;2023-06-10T09:23:49;23.60;55.50
80577;DHT22;69937;52.420;10.538;2023-06-10T09:28:50;24.00;55.50
80577;DHT22;69937;52.420;10.538;2023-06-10T09:33:50;24.40;54.10
80577;DHT22;69937;52.420;10.538;2023-06-10T09:38:51;24.40;54.70
80577;DHT22;69937;52.420;10.538;2023-06-10T09:43:51;24.70;54.40
80577;DHT22;69937;52.420;10.538;2023-06-10T09:48:52;25.20;54.30
80577;DHT22;69937;52.420;10.538;2023-06-10T09:53:53;25.70;52.90
80577;DHT22;69937;52.420;10.538;2023-06-10T09:58:54;25.60;52.50
80577;DHT22;69937;52.420;10.538;2023-06-10T10:03:54;25.80;53.10
80577;DHT22;69937;52.420;10.538;2023-06-10T10:08:55;26.40;51.80
80577;DHT22;69937;52.420;10.538;2023-06-10T10:13:56;26.90;50.70
80577;DHT22;69937;52.420;10.538;2023-06-10T10:19:07;27.50;50.80
80577;DHT22;69937;52.420;10.538;2023-06-10T10:29:23;28.20;49.40
80577;DHT22;69937;52.420;10.538;2023-06-10T10:34:27;28.50;48.00
80577;DHT22;69937;52.420;10.538;2023-06-10T10:39:32;29.00;47.30
80577;DHT22;69937;52.420;10.538;2023-06-10T10:44:33;29.20;47.80
80577;DHT22;69937;52.420;10.538;2023-06-10T10:49:35;29.70;46.60
80577;DHT22;69937;52.420;10.538;2023-06-10T10:54:37;30.00;46.60
80577;DHT22;69937;52.420;10.538;2023-06-10T10:59:57;30.10;46.10
80577;DHT22;69937;52.420;10.538;2023-06-10T11:05:01;30.50;45.70
80577;DHT22;69937;52.420;10.538;2023-06-10T11:10:10;31.00;44.40
80577;DHT22;69937;52.420;10.538;2023-06-10T11:15:22;30.50;45.30
80577;DHT22;69937;52.420;10.538;2023-06-10T11:20:54;30.00;45.20
80577;DHT22;69937;52.420;10.538;2023-06-10T11:26:17;30.10;44.90
80577;DHT22;69937;52.420;10.538;2023-06-10T11:31:25;30.50;44.80
80577;DHT22;69937;52.420;10.538;2023-06-10T11:36:27;30.60;46.10
80577;DHT22;69937;52.420;10.538;2023-06-10T11:41:29;30.80;45.20
80577;DHT22;69937;52.420;10.538;2023-06-10T11:46:31;31.20;44.10
80577;DHT22;69937;52.420;10.538;2023-06-10T11:51:39;31.20;44.80
80577;DHT22;69937;52.420;10.538;2023-06-10T11:56:41;31.00;44.40
80577;DHT22;69937;52.420;10.538;2023-06-10T12:01:44;30.90;44.10
80577;DHT22;69937;52.420;10.538;2023-06-10T12:06:49;31.10;43.20
80577;DHT22;69937;52.420;10.538;2023-06-10T12:12:01;31.10;43.70
80577;DHT22;69937;52.420;10.538;2023-06-10T12:17:02;31.50;43.80
80577;DHT22;69937;52.420;10.538;2023-06-10T12:22:03;32.00;43.40
80577;DHT22;69937;52.420;10.538;2023-06-10T12:27:04;32.40;43.20
80577;DHT22;69937;52.420;10.538;2023-06-10T12:32:05;33.30;42.60
80577;DHT22;69937;52.420;10.538;2023-06-10T12:37:11;33.00;42.00
80577;DHT22;69937;52.420;10.538;2023-06-10T12:42:15;33.40;42.50
80577;DHT22;69937;52.420;10.538;2023-06-10T12:47:16;33.10;42.20
80577;DHT22;69937;52.420;10.538;2023-06-10T12:52:17;33.50;41.60
80577;DHT22;69937;52.420;10.538;2023-06-10T12:57:17;33.90;41.70
80577;DHT22;69937;52.420;10.538;2023-06-10T13:02:19;34.00;41.00
80577;DHT22;69937;52.420;10.538;2023-06-10T13:07:20;34.20;41.40
80577;DHT22;69937;52.420;10.538;2023-06-10T13:12:24;34.40;41.10
80577;DHT22;69937;52.420;10.538;2023-06-10T13:17:25;34.60;40.90
80577;DHT22;69937;52.420;10.538;2023-06-10T13:22:27;34.90;39.60
80577;DHT22;69937;52.420;10.538;2023-06-10T13:27:27;34.90;39.70
80577;DHT22;69937;52.420;10.538;2023-06-10T13:32:28;34.80;40.50
80577;DHT22;69937;52.420;10.538;2023-06-10T13:37:29;35.00;39.40
80577;DHT22;69937;52.420;10.538;2023-06-10T13:42:30;34.80;40.20
80577;DHT22;69937;52.420;10.538;2023-06-10T13:47:30;35.30;39.20
80577;DHT22;69937;52.420;10.538;2023-06-10T13:52:31;35.40;39.40
80577;DHT22;69937;52.420;10.538;2023-06-10T13:57:31;35.60;40.20
80577;DHT22;69937;52.420;10.538;2023-06-10T14:02:32;34.80;39.60
80577;DHT22;69937;52.420;10.538;2023-06-10T14:07:33;34.50;39.70
80577;DHT22;69937;52.420;10.538;2023-06-10T14:12:33;35.10;40.00
80577;DHT22;69937;52.420;10.538;2023-06-10T14:17:34;34.80;40.20
80577;DHT22;69937;52.420;10.538;2023-06-10T14:22:35;35.20;41.00
80577;DHT22;69937;52.420;10.538;2023-06-10T14:27:35;35.30;39.50
80577;DHT22;69937;52.420;10.538;2023-06-10T14:32:36;35.00;40.20
80577;DHT22;69937;52.420;10.538;2023-06-10T14:37:37;34.80;39.10
80577;DHT22;69937;52.420;10.538;2023-06-10T14:42:38;34.90;39.40
80577;DHT22;69937;52.420;10.538;2023-06-10T14:47:38;34.70;39.00
80577;DHT22;69937;52.420;10.538;2023-06-10T14:52:39;34.80;39.10
80577;DHT22;69937;52.420;10.538;2023-06-10T14:57:40;34.80;39.40
80577;DHT22;69937;52.420;10.538;2023-06-10T15:02:41;34.30;39.00
80577;DHT22;69937;52.420;10.538;2023-06-10T15:07:42;34.00;40.30
80577;DHT22;69937;52.420;10.538;2023-06-10T15:12:43;34.20;39.70
80577;DHT22;69937;52.420;10.538;2023-06-10T15:17:43;35.00;39.10
80577;DHT22;69937;52.420;10.538;2023-06-10T15:22:44;34.60;39.10
80577;DHT22;69937;52.420;10.538;2023-06-10T15:27:45;34.00;40.20
80577;DHT22;69937;52.420;10.538;2023-06-10T15:32:45;33.60;41.00
80577;DHT22;69937;52.420;10.538;2023-06-10T15:37:46;32.40;40.30
80577;DHT22;69937;52.420;10.538;2023-06-10T15:42:47;31.50;40.50
80577;DHT22;69937;52.420;10.538;2023-06-10T15:47:47;31.40;40.30
80577;DHT22;69937;52.420;10.538;2023-06-10T15:52:48;30.90;40.80
80577;DHT22;69937;52.420;10.538;2023-06-10T15:57:48;30.30;41.70
80577;DHT22;69937;52.420;10.538;2023-06-10T16:02:49;29.90;42.50
80577;DHT22;69937;52.420;10.538;2023-06-10T16:07:50;29.40;43.50
80577;DHT22;69937;52.420;10.538;2023-06-10T16:12:50;27.60;45.50
80577;DHT22;69937;52.420;10.538;2023-06-10T16:17:51;26.90;46.10
80577;DHT22;69937;52.420;10.538;2023-06-10T16:22:52;26.30;47.00
80577;DHT22;69937;52.420;10.538;2023-06-10T16:27:53;25.50;48.60
80577;DHT22;69937;52.420;10.538;2023-06-10T16:32:54;24.70;49.80
80577;DHT22;69937;52.420;10.538;2023-06-10T16:37:54;24.40;50.70
80577;DHT22;69937;52.420;10.538;2023-06-10T16:42:55;24.10;52.60
80577;DHT22;69937;52.420;10.538;2023-06-10T16:47:56;24.20;52.70
80577;DHT22;69937;52.420;10.538;2023-06-10T16:52:56;24.00;52.70
80577;DHT22;69937;52.420;10.538;2023-06-10T16:57:57;23.90;53.70
80577;DHT22;69937;52.420;10.538;2023-06-10T17:02:58;23.80;54.60
80577;DHT22;69937;52.420;10.538;2023-06-10T17:07:58;23.90;53.40
80577;DHT22;69937;52.420;10.538;2023-06-10T17:12:59;23.90;53.00
80577;DHT22;69937;52.420;10.538;2023-06-10T17:18:00;23.80;53.10
80577;DHT22;69937;52.420;10.538;2023-06-10T17:23:00;23.90;53.50
80577;DHT22;69937;52.420;10.538;2023-06-10T17:28:01;24.00;53.80
80577;DHT22;69937;52.420;10.538;2023-06-10T17:33:02;24.00;52.90
80577;DHT22;69937;52.420;10.538;2023-06-10T17:38:03;24.10;52.90
80577;DHT22;69937;52.420;10.538;2023-06-10T17:43:03;24.20;52.90
80577;DHT22;69937;52.420;10.538;2023-06-10T17:48:04;24.30;53.40
80577;DHT22;69937;52.420;10.538;2023-06-10T17:53:05;24.30;54.70
80577;DHT22;69937;52.420;10.538;2023-06-10T17:58:05;24.00;55.50
80577;DHT22;69937;52.420;10.538;2023-06-10T18:03:06;23.90;58.00
80577;DHT22;69937;52.420;10.538;2023-06-10T18:08:07;23.80;57.40
80577;DHT22;69937;52.420;10.538;2023-06-10T18:13:07;23.70;58.50
80577;DHT22;69937;52.420;10.538;2023-06-10T18:18:08;23.60;59.00
80577;DHT22;69937;52.420;10.538;2023-06-10T18:23:08;23.30;58.90
80577;DHT22;69937;52.420;10.538;2023-06-10T18:28:09;23.20;59.70
80577;DHT22;69937;52.420;10.538;2023-06-10T18:33:10;23.30;58.60
80577;DHT22;69937;52.420;10.538;2023-06-10T18:38:11;23.20;61.00
80577;DHT22;69937;52.420;10.538;2023-06-10T18:43:11;22.80;61.90
80577;DHT22;69937;52.420;10.538;2023-06-10T18:48:13;22.70;62.10
80577;DHT22;69937;52.420;10.538;2023-06-10T18:53:13;22.70;60.80
80577;DHT22;69937;52.420;10.538;2023-06-10T18:58:14;22.60;60.70
80577;DHT22;69937;52.420;10.538;2023-06-10T19:03:15;22.30;61.80
80577;DHT22;69937;52.420;10.538;2023-06-10T19:08:16;22.10;61.70
80577;DHT22;69937;52.420;10.538;2023-06-10T19:13:17;21.90;61.40
80577;DHT22;69937;52.420;10.538;2023-06-10T19:18:17;21.80;59.80
80577;DHT22;69937;52.420;10.538;2023-06-10T19:23:18;21.70;59.80
80577;DHT22;69937;52.420;10.538;2023-06-10T19:28:19;21.80;60.30
80577;DHT22;69937;52.420;10.538;2023-06-10T19:33:19;21.60;59.80
80577;DHT22;69937;52.420;10.538;2023-06-10T19:38:20;21.50;59.90
80577;DHT22;69937;52.420;10.538;2023-06-10T19:43:21;21.50;59.40
80577;DHT22;69937;52.420;10.538;2023-06-10T19:48:22;21.50;59.70
80577;DHT22;69937;52.420;10.538;2023-06-10T19:53:23;21.30;62.70
80577;DHT22;69937;52.420;10.538;2023-06-10T19:58:24;21.00;63.90
80577;DHT22;69937;52.420;10.538;2023-06-10T20:03:24;20.80;63.70
80577;DHT22;69937;52.420;10.538;2023-06-10T20:08:25;20.80;63.60
80577;DHT22;69937;52.420;10.538;2023-06-10T20:13:26;20.70;63.70
80577;DHT22;69937;52.420;10.538;2023-06-10T20:18:27;20.50;63.70
80577;DHT22;69937;52.420;10.538;2023-06-10T20:23:27;20.40;64.00
80577;DHT22;69937;52.420;10.538;2023-06-10T20:28:28;20.30;63.70
80577;DHT22;69937;52.420;10.538;2023-06-10T20:33:29;20.20;63.90
80577;DHT22;69937;52.420;10.538;2023-06-10T20:38:30;20.10;64.10
80577;DHT22;69937;52.420;10.538;2023-06-10T20:43:31;20.00;64.30
80577;DHT22;69937;52.420;10.538;2023-06-10T20:48:31;20.00;64.10
80577;DHT22;69937;52.420;10.538;2023-06-10T20:53:32;19.90;64.30
80577;DHT22;69937;52.420;10.538;2023-06-10T20:58:33;19.90;63.80
80577;DHT22;69937;52.420;10.538;2023-06-10T21:03:34;19.80;63.20
80577;DHT22;69937;52.420;10.538;2023-06-10T21:08:35;19.70;63.20
80577;DHT22;69937;52.420;10.538;2023-06-10T21:13:36;19.70;62.80
80577;DHT22;69937;52.420;10.538;2023-06-10T21:18:36;19.50;63.30
80577;DHT22;69937;52.420;10.538;2023-06-10T21:23:37;19.50;63.30
80577;DHT22;69937;52.420;10.538;2023-06-10T21:28:37;19.40;63.50
80577;DHT22;69937;52.420;10.538;2023-06-10T21:33:38;19.30;63.70
80577;DHT22;69937;52.420;10.538;2023-06-10T21:38:39;19.20;64.30
80577;DHT22;69937;52.420;10.538;2023-06-10T21:43:39;19.20;64.40
80577;DHT22;69937;52.420;10.538;2023-06-10T21:48:40;19.00;64.80
80577;DHT22;69937;52.420;10.538;2023-06-10T21:53:41;19.00;65.00
80577;DHT22;69937;52.420;10.538;2023-06-10T21:58:41;18.90;65.20
80577;DHT22;69937;52.420;10.538;2023-06-10T22:03:44;18.80;65.20
80577;DHT22;69937;52.420;10.538;2023-06-10T22:08:46;18.80;65.30
80577;DHT22;69937;52.420;10.538;2023-06-10T22:13:47;18.70;65.10
80577;DHT22;69937;52.420;10.538;2023-06-10T22:18:48;18.70;65.00
80577;DHT22;69937;52.420;10.538;2023-06-10T22:23:49;18.60;65.20
80577;DHT22;69937;52.420;10.538;2023-06-10T22:28:49;18.50;65.30
80577;DHT22;69937;52.420;10.538;2023-06-10T22:33:50;18.40;65.40
80577;DHT22;69937;52.420;10.538;2023-06-10T22:38:51;18.40;65.40
80577;DHT22;69937;52.420;10.538;2023-06-10T22:43:51;18.40;65.40
80577;DHT22;69937;52.420;10.538;2023-06-10T22:48:52;18.30;65.40
80577;DHT22;69937;52.420;10.538;2023-06-10T22:53:53;18.20;65.50
80577;DHT22;69937;52.420;10.538;2023-06-10T22:58:53;18.20;65.70
80577;DHT22;69937;52.420;10.538;2023-06-10T23:03:54;18.10;65.70
80577;DHT22;69937;52.420;10.538;2023-06-10T23:08:55;18.00;65.40
80577;DHT22;69937;52.420;10.538;2023-06-10T23:13:55;18.00;65.10
80577;DHT22;69937;52.420;10.538;2023-06-10T23:18:58;18.00;64.80
80577;DHT22;69937;52.420;10.538;2023-06-10T23:23:59;18.00;64.60
80577;DHT22;69937;52.420;10.538;2023-06-10T23:29:00;17.80;64.10
80577;DHT22;69937;52.420;10.538;2023-06-10T23:34:00;17.80;64.10
80577;DHT22;69937;52.420;10.538;2023-06-10T23:39:01;17.80;64.00
80577;DHT22;69937;52.420;10.538;2023-06-10T23:44:03;17.70;64.00
80577;DHT22;69937;52.420;10.538;2023-06-10T23:49:04;17.60;63.90
80577;DHT22;69937;52.420;10.538;2023-06-10T23:54:06;17.50;64.00
80577;DHT22;69937;52.420;10.538;2023-06-10T23:59:07;17.50;63.90
